• Join FlightAware (Why Join?)
  • Login
  • US Flag 
Rudolph Flight #1: Arrived! 
01:35AM EST


 

Airport Tracker/Info


-or-


 

Live Flight TrackerFlight Track Log ✈ AWE1974 ✈ 10-Nov-2013 ✈ KCLT - KSFO

Flight Track Log - Related Links

Times and Time Zones

All times are in EST time to prevent confusion due to time zone crossing. See the AWE1974 flight status page for this flight to view local times or setup timezone preferences in your user account.

Time Position Orientation Groundspeed Altitude Reporting Facility
EST Latitude Longitude Course Direction KTS MPH feet Rate Location/Type
07:46AM 35.2289 -80.9572 266° West 162 186 1,700  Level Atlanta Center
07:46AM 35.2586 -80.9714 339° North 166 191 2,700 1,380 Climbing Atlanta Center
07:47AM 35.2914 -81.0361 302° West 251 289 4,300 1,800 Climbing Atlanta Center
07:48AM 35.2839 -81.0722 256° West 252 290 5,400 3,000 Climbing Atlanta Center
07:48AM 35.2811 -81.1281 267° West 266 306 7,400 2,460 Climbing Atlanta Center
07:49AM 35.3402 -81.4738 270° West  Level Estimated
07:49AM 35.2775 -81.1589 262° West 279 321 7,900  Level Atlanta Center
07:50AM 35.3715 -81.6053 259° West  Level Estimated
07:50AM 35.2622 -81.2178 252° West 276 318 9,000  Level Atlanta Center
07:51AM 35.4026 -81.7368 266° West  Level Estimated
07:51AM 35.2250 -81.3258 247° West 276 318 11,400  Level Atlanta Center
07:52AM 35.1853 -81.4161 242° Southwest 296 341 13,300 1,920 Climbing Atlanta Center
07:53AM 35.1458 -81.5242 246° West 321 369 15,300 2,100 Climbing Atlanta Center
07:54AM 35.1394 -81.6258 266° West 331 381 17,500 1,920 Climbing Atlanta Center
07:55AM 35.1314 -81.7431 265° West 342 394 19,200 1,680 Climbing Atlanta Center
07:56AM 35.1211 -81.8600 264° West 347 399 20,900 1,800 Climbing Atlanta Center
07:57AM 35.1128 -81.9872 265° West 362 417 22,800 1,020 Climbing Atlanta Center
07:58AM 35.1022 -82.1094 264° West 368 423 23,000 660 Climbing Atlanta Center
07:59AM 35.0917 -82.2339 264° West 379 436 24,200 840 Climbing Atlanta Center
08:00AM 35.1122 -82.3631 281° West 373 429 24,700 480 Climbing Atlanta Center
08:01AM 35.1453 -82.4969 287° West 394 453 25,200 540 Climbing Atlanta Center
08:02AM 35.1825 -82.6361 288° West 416 479 25,800 720 Climbing Atlanta Center
08:03AM 35.2194 -82.7778 288° West 436 502 26,700 1,080 Climbing Atlanta Center
08:04AM 35.2564 -82.9325 286° West 435 501 28,000 600 Climbing Atlanta Center
08:05AM 35.2908 -83.0719 287° West 429 494 28,000  Level Atlanta Center
08:06AM 35.3253 -83.2114 287° West 423 487 28,000  Level Atlanta Center
08:07AM 35.3594 -83.3511 287° West 423 487 28,000  Level Atlanta Center
08:08AM 35.3958 -83.4883 288° West 423 487 28,000  Level Atlanta Center
08:09AM 35.4297 -83.6258 287° West 423 487 28,000  Level Atlanta Center
08:10AM 35.4633 -83.7633 287° West 423 487 28,000  Level Atlanta Center
08:11AM 35.4969 -83.9011 287° West 423 487 28,000 3,000 Level Atlanta Center
08:12AM 35.5306 -84.0414 286° West 423 487 34,000  Climbing Atlanta Center
08:13AM 35.5639 -84.1792 287° West 423 487 28,000 -2,640 Descending Atlanta Center
08:14AM 35.5969 -84.3172 286° West 423 487 28,800 840 Climbing Atlanta Center
08:15AM 35.6300 -84.4528 287° West 418 481 29,700 1,020 Climbing Atlanta Center
08:16AM 35.6628 -84.5908 286° West 418 481 30,900 960 Climbing Atlanta Center
08:18AM 35.7183 -84.8303 286° West 410 472 32,600 1,020 Climbing Memphis Center
08:19AM 35.7497 -84.9681 286° West 408 470 34,000 660 Climbing Memphis Center
08:20AM 35.7822 -85.1006 287° West 400 460 34,000  Level Memphis Center
08:21AM 35.8128 -85.2339 286° West 400 460 34,000  Level Memphis Center
08:22AM 35.8431 -85.3658 286° West 398 458 34,000  Level Memphis Center
08:23AM 35.8728 -85.4981 286° West 399 459 34,000  Level Memphis Center
08:24AM 35.9033 -85.6294 286° West 400 460 34,000  Level Memphis Center
08:25AM 35.9331 -85.7611 286° West 399 459 34,000  Level Memphis Center
08:26AM 35.9625 -85.8950 285° West 400 460 34,000  Level Memphis Center
08:27AM 35.9928 -86.0297 286° West 402 463 34,000  Level Memphis Center
08:28AM 36.0228 -86.1647 285° West 403 464 34,000  Level Memphis Center
08:29AM 36.0525 -86.3003 285° West 404 465 34,000  Level Memphis Center
08:30AM 36.0819 -86.4364 285° West 406 467 34,000  Level Memphis Center
08:31AM 36.1119 -86.5717 285° West 405 466 34,000  Level Memphis Center
08:32AM 36.1406 -86.7075 285° West 403 464 34,000  Level Memphis Center
08:33AM 36.1750 -86.8450 287° West 406 467 34,000  Level Memphis Center
08:34AM 36.2089 -86.9842 287° West 410 472 34,000  Level Memphis Center
08:35AM 36.2425 -87.1214 287° West 409 471 34,000  Level Memphis Center
08:36AM 36.2756 -87.2558 287° West 404 465 34,000  Level Memphis Center
08:37AM 36.3081 -87.3911 287° West 404 465 34,000  Level Memphis Center
08:38AM 36.3400 -87.5261 286° West 404 465 34,000  Level Memphis Center
08:39AM 36.3719 -87.6608 286° West 404 465 34,000  Level Memphis Center
08:40AM 36.4036 -87.7969 286° West 405 466 34,000  Level Memphis Center
08:41AM 36.4347 -87.9336 286° West 407 468 34,000  Level Memphis Center
08:42AM 36.4675 -88.0725 286° West 412 474 34,000  Level Memphis Center
08:43AM 36.5014 -88.2192 286° West 412 474 34,000  Level Memphis Center
08:44AM 36.5319 -88.3572 285° West 414 476 34,000  Level Memphis Center
08:45AM 36.5644 -88.4944 286° West 415 478 34,000  Level Memphis Center
08:46AM 36.5947 -88.6325 285° West 415 478 34,000  Level Memphis Center
08:47AM 36.6261 -88.7697 286° West 415 478 34,000  Level Memphis Center
08:48AM 36.6569 -88.9069 286° West 414 476 34,000  Level Memphis Center
08:49AM 36.6878 -89.0453 286° West 416 479 34,000  Level Memphis Center
08:50AM 36.7236 -89.2119 285° West 419 482 34,000  Level Memphis Center
08:51AM 36.7547 -89.3508 286° West 420 483 34,000  Level Memphis Center
08:52AM 36.7850 -89.4914 285° West 422 486 34,000  Level Memphis Center
08:53AM 36.8164 -89.6331 286° West 425 489 34,000  Level Memphis Center
08:54AM 36.8461 -89.7747 285° West 425 489 34,000  Level Memphis Center
08:55AM 36.8767 -89.9181 285° West 426 490 34,000  Level Memphis Center
08:56AM 36.9075 -90.0600 285° West 425 489 34,000  Level Memphis Center
08:57AM 36.9322 -90.1769 285° West 426 490 34,000  Level Kansas City Center
08:58AM 36.9619 -90.3211 285° West 427 491 34,000  Level Kansas City Center
08:59AM 36.9922 -90.4653 285° West 428 493 34,000  Level Kansas City Center
09:00AM 37.0206 -90.6081 284° West 423 487 34,000  Level Kansas City Center
09:01AM 37.0500 -90.7536 284° West 428 493 34,000  Level Kansas City Center
09:02AM 37.0800 -90.8997 284° West 433 498 34,000  Level Kansas City Center
09:03AM 37.1064 -91.0431 283° West 429 494 34,000  Level Kansas City Center
09:04AM 37.1381 -91.1878 285° West 428 493 34,000  Level Kansas City Center
09:05AM 37.1669 -91.3336 284° West 429 494 34,000  Level Kansas City Center
09:06AM 37.1961 -91.4803 284° West 430 495 34,000  Level Kansas City Center
09:07AM 37.2253 -91.6261 284° West 430 495 34,000  Level Kansas City Center
09:08AM 37.2550 -91.7728 284° West 431 496 34,000  Level Kansas City Center
09:09AM 37.2839 -91.9197 284° West 431 496 34,000  Level Kansas City Center
09:10AM 37.3114 -92.0669 283° West 430 495 34,000  Level Kansas City Center
09:11AM 37.3411 -92.2147 284° West 432 497 34,000  Level Kansas City Center
09:12AM 37.3744 -92.3931 283° West 432 497 34,000  Level Kansas City Center
09:13AM 37.4028 -92.5428 283° West 434 499 34,000  Level Kansas City Center
09:14AM 37.4308 -92.6911 283° West 433 498 34,000  Level Kansas City Center
09:15AM 37.4589 -92.8383 284° West 431 496 34,000  Level Kansas City Center
09:16AM 37.4864 -92.9872 283° West 431 496 34,000  Level Kansas City Center
09:17AM 37.5131 -93.1344 283° West 430 495 34,000  Level Kansas City Center
09:18AM 37.5408 -93.2833 283° West 431 496 34,000  Level Kansas City Center
09:19AM 37.5678 -93.4333 283° West 435 501 34,000  Level Kansas City Center
09:20AM 37.5947 -93.5819 283° West 434 499 34,000  Level Kansas City Center
09:21AM 37.6214 -93.7314 283° West 434 499 34,000  Level Kansas City Center
09:22AM 37.6486 -93.8817 283° West 436 502 34,000  Level Kansas City Center
09:23AM 37.6747 -94.0325 282° West 437 503 34,000  Level Kansas City Center
09:24AM 37.6989 -94.1811 282° West 434 499 34,000  Level Kansas City Center
09:25AM 37.7250 -94.3314 282° West 436 502 34,000  Level Kansas City Center
09:26AM 37.7528 -94.4906 282° West 437 503 34,000  Level Kansas City Center
09:28AM 37.7772 -94.6347 282° West 438 504 34,000  Level Kansas City Center
09:29AM 37.8058 -94.8028 282° West 438 504 34,000  Level Kansas City Center
09:30AM 37.8306 -94.9492 282° West 440 506 34,000  Level Kansas City Center
09:31AM 37.8542 -95.0953 282° West 442 509 34,000  Level Kansas City Center
09:32AM 37.8814 -95.2589 282° West 444 511 34,000  Level Kansas City Center
09:33AM 37.9058 -95.4114 282° West 444 511 34,000  Level Kansas City Center
09:34AM 37.9308 -95.5669 282° West 447 514 34,000  Level Kansas City Center
09:35AM 37.9567 -95.7364 281° West 448 516 34,000  Level Kansas City Center
09:36AM 37.9803 -95.8814 282° West 441 507 34,000  Level Kansas City Center
09:37AM 38.0078 -96.0522 282° West 442 509 34,000  Level Kansas City Center
09:38AM 38.0300 -96.1867 282° West 436 502 34,000  Level Kansas City Center
09:39AM 38.0542 -96.3381 282° West 438 504 34,000  Level Kansas City Center
09:40AM 38.0789 -96.4906 282° West 441 507 34,000  Level Kansas City Center
09:41AM 38.1019 -96.6422 281° West 440 506 34,000  Level Kansas City Center
09:42AM 38.1300 -96.8244 281° West 439 505 34,000  Level Kansas City Center
09:43AM 38.1533 -96.9742 281° West 434 499 34,000  Level Kansas City Center
09:44AM 38.1753 -97.1242 281° West 433 498 34,000  Level Kansas City Center
09:45AM 38.1978 -97.2736 281° West 434 499 34,000  Level Kansas City Center
09:46AM 38.2208 -97.4228 281° West 432 497 34,000  Level Kansas City Center
09:47AM 38.2425 -97.5725 280° West 433 498 34,000  Level Kansas City Center
09:48AM 38.2644 -97.7214 281° West 433 498 34,000  Level Kansas City Center
09:49AM 38.2864 -97.8708 281° West 434 499 34,000  Level Kansas City Center
09:50AM 38.3114 -98.0503 280° West 434 499 34,000  Level Kansas City Center
09:51AM 38.3336 -98.2003 281° West 435 501 34,000  Level Kansas City Center
09:52AM 38.3497 -98.3500 278° West 430 495 34,000  Level Kansas City Center
09:53AM 38.3589 -98.5011 274° West 430 495 34,000  Level Kansas City Center
09:54AM 38.3683 -98.6522 275° West 430 495 34,000  Level Kansas City Center
09:55AM 38.3778 -98.8017 275° West 426 490 34,000  Level Kansas City Center
09:56AM 38.3858 -98.9531 274° West 428 493 34,000  Level Kansas City Center
09:57AM 38.3975 -99.1325 275° West 426 490 34,000  Level Kansas City Center
09:58AM 38.4058 -99.2819 274° West 424 488 34,000  Level Kansas City Center
09:59AM 38.4139 -99.4306 274° West 423 487 34,000  Level Kansas City Center
10:00AM 38.4225 -99.5761 274° West 421 484 34,000  Level Kansas City Center
10:01AM 38.4319 -99.7444 274° West 424 488 34,000  Level Kansas City Center
10:02AM 38.4369 -99.8867 273° West 423 487 34,000  Level Kansas City Center
10:03AM 38.4464 -100.0317 275° West 428 493 34,000  Level Kansas City Center
10:04AM 38.4533 -100.1986 273° West 425 489 34,000  Level Kansas City Center
10:05AM 38.4614 -100.3447 274° West 429 494 34,000  Level Kansas City Center
10:06AM 38.4683 -100.5131 273° West 428 493 34,000  Level Kansas City Center
10:07AM 38.4756 -100.6572 274° West 428 493 34,000  Level Kansas City Center
10:08AM 38.4825 -100.8264 273° West 429 494 34,000  Level Kansas City Center
10:09AM 38.4867 -100.8986 274° West 432 497 34,000  Level Denver Center
10:10AM 38.4931 -101.0656 273° West 427 491 34,000  Level Denver Center
10:11AM 38.4997 -101.2097 273° West 427 491 34,000  Level Denver Center
10:12AM 38.5061 -101.3781 273° West 428 493 34,000  Level Denver Center
10:13AM 38.5119 -101.5247 273° West 431 496 34,000  Level Denver Center
10:14AM 38.5167 -101.6689 272° West 428 493 34,000  Level Denver Center
10:15AM 38.5231 -101.8392 273° West 431 496 34,000  Level Denver Center
10:16AM 38.5275 -101.9850 272° West 430 495 34,000  Level Denver Center
10:17AM 38.5322 -102.1564 272° West 433 498 34,000  Level Denver Center
10:18AM 38.5378 -102.3025 273° West 432 497 34,000  Level Denver Center
10:19AM 38.5419 -102.4481 272° West 432 497 34,000  Level Denver Center
10:20AM 38.5469 -102.6183 272° West 429 494 34,000  Level Denver Center
10:21AM 38.5519 -102.7656 273° West 433 498 34,000  Level Denver Center
10:22AM 38.5572 -102.9361 272° West 433 498 34,000  Level Denver Center
10:23AM 38.5600 -103.0833 271° West 433 498 34,000  Level Denver Center
10:24AM 38.5644 -103.2539 272° West 432 497 34,000  Level Denver Center
10:25AM 38.5683 -103.3986 272° West 428 493 34,000  Level Denver Center
10:26AM 38.5706 -103.5486 271° West 432 497 34,000  Level Denver Center
10:27AM 38.5744 -103.7181 272° West 430 495 34,000  Level Denver Center
10:28AM 38.5764 -103.8633 271° West 429 494 34,000  Level Denver Center
10:29AM 38.5786 -104.0103 271° West 432 497 34,000  Level Denver Center
10:31AM 38.5817 -104.1697 271° West 431 496 34,000  Level Denver Center
10:32AM 38.5844 -104.3242 271° West 433 498 34,000  Level Denver Center
10:33AM 38.5867 -104.4764 271° West 431 496 34,000  Level Denver Center
10:34AM 38.5892 -104.6614 271° West 432 497 34,000  Level Denver Center
10:35AM 38.5911 -104.8178 271° West 437 503 34,000  Level Denver Center
10:36AM 38.5928 -104.9728 271° West 438 504 34,000  Level Denver Center
10:37AM 38.5931 -105.1300 270° West 440 506 34,000  Level Denver Center
10:38AM 38.5947 -105.2869 271° West 441 507 34,000  Level Denver Center
10:39AM 38.5950 -105.4436 270° West 441 507 34,000  Level Denver Center
10:40AM 38.5961 -105.5986 271° West 438 504 34,000  Level Denver Center
10:41AM 38.5961 -105.7522 270° West 435 501 34,000  Level Denver Center
10:42AM 38.5967 -105.9336 270° West 436 502 34,000  Level Denver Center
10:43AM 38.5967 -106.0808 270° West 433 498 34,000  Level Denver Center
10:44AM 38.5969 -106.2525 270° West 439 505 34,000  Level Denver Center
10:45AM 38.5961 -106.4092 270° West 440 506 34,000  Level Denver Center
10:46AM 38.5950 -106.5661 270° West 440 506 34,000  Level Denver Center
10:47AM 38.5936 -106.7242 269° West 443 510 34,000  Level Denver Center
10:48AM 38.5933 -106.8803 270° West 439 505 34,000  Level Denver Center
10:49AM 38.5911 -107.0403 269° West 444 511 34,000  Level Denver Center
10:50AM 38.5897 -107.2039 269° West 442 509 34,000  Level Denver Center
10:51AM 38.5875 -107.3781 269° West 440 506 34,000  Level Denver Center
10:52AM 38.5858 -107.5281 269° West 440 506 34,000  Level Denver Center
10:53AM 38.5828 -107.7050 269° West 444 511 34,000  Level Denver Center
10:54AM 38.5806 -107.8553 269° West 443 510 34,000  Level Denver Center
10:55AM 38.5783 -108.0314 269° West 443 510 34,000  Level Denver Center
10:56AM 38.5756 -108.1817 269° West 442 509 34,000 240 Level Denver Center
10:57AM 38.5722 -108.3572 269° West 442 509 34,600 780 Climbing Denver Center
10:58AM 38.5694 -108.5075 269° West 441 507 35,700 960 Climbing Denver Center
10:59AM 38.5661 -108.6578 268° West 442 509 36,600 1,020 Climbing Denver Center
11:00AM 38.5622 -108.8331 268° West 440 506 37,900 660 Climbing Denver Center
11:01AM 38.5578 -108.9803 268° West 431 496 38,000  Climbing Denver Center
11:02AM 38.5533 -109.1522 268° West 432 497 38,000  Level Denver Center
11:03AM 38.5500 -109.3025 268° West 439 505 38,000  Level Denver Center
11:05AM 38.5444 -109.4739 268° West 435 501 38,000  Level Denver Center
11:06AM 38.5397 -109.6222 268° West 435 501 38,000  Level Denver Center
11:07AM 38.5350 -109.7692 268° West 433 498 38,000  Level Denver Center
11:08AM 38.5303 -109.9414 268° West 434 499 38,000  Level Denver Center
11:09AM 38.5242 -110.0894 267° West 435 501 38,000  Level Denver Center
11:09AM 38.5206 -110.2403 268° West 438 504 38,000  Level Salt Lake Center
11:10AM 38.5158 -110.3878 268° West 434 499 38,000  Level Salt Lake Center
11:12AM 38.5097 -110.5350 267° West 435 501 38,000  Level Salt Lake Center
11:13AM 38.5031 -110.7075 267° West 435 501 38,000  Level Salt Lake Center
11:14AM 38.4972 -110.8561 267° West 437 503 38,000  Level Salt Lake Center
11:15AM 38.4908 -111.0039 267° West 435 501 38,000  Level Salt Lake Center
11:16AM 38.4836 -111.1900 267° West 440 506 38,000  Level Salt Lake Center
11:17AM 38.4756 -111.3464 266° West 442 509 38,000  Level Salt Lake Center
11:18AM 38.4686 -111.5022 267° West 442 509 38,000  Level Salt Lake Center
11:19AM 38.4608 -111.6567 266° West 439 505 38,000  Level Salt Lake Center
11:20AM 38.4544 -111.8133 267° West 442 509 38,000  Level Salt Lake Center
11:21AM 38.4461 -111.9669 266° West 439 505 38,000  Level Salt Lake Center
11:22AM 38.4381 -112.1211 266° West 437 503 38,000  Level Salt Lake Center
11:23AM 38.4294 -112.2753 266° West 438 504 38,000  Level Salt Lake Center
11:24AM 38.4192 -112.4619 266° West 442 509 38,000  Level Salt Lake Center
11:25AM 38.4108 -112.6156 266° West 440 506 38,000  Level Salt Lake Center
11:26AM 38.4017 -112.7700 266° West 440 506 38,000  Level Salt Lake Center
11:27AM 38.3925 -112.9242 266° West 440 506 38,000  Level Salt Lake Center
11:28AM 38.3822 -113.0775 265° West 438 504 38,000  Level Salt Lake Center
11:29AM 38.3725 -113.2325 265° West 441 507 38,000  Level Salt Lake Center
11:30AM 38.3617 -113.4178 266° West 440 506 38,000  Level Salt Lake Center
11:31AM 38.3517 -113.5714 265° West 439 505 38,000  Level Salt Lake Center
11:32AM 38.3425 -113.7267 266° West 440 506 38,000  Level Salt Lake Center
11:33AM 38.3322 -113.8811 265° West 441 507 38,000  Level Salt Lake Center
11:34AM 38.3219 -114.0367 265° West 442 509 38,000  Level Salt Lake Center
11:35AM 38.3111 -114.1911 265° West 441 507 38,000  Level Salt Lake Center
11:36AM 38.3000 -114.3439 265° West 438 504 38,000  Level Salt Lake Center
11:37AM 38.2850 -114.5294 264° West 440 506 38,000  Level Salt Lake Center
11:38AM 38.2731 -114.6844 264° West 441 507 38,000  Level Salt Lake Center
11:39AM 38.2597 -114.8394 264° West 442 509 38,000  Level Salt Lake Center
11:40AM 38.2494 -114.9944 265° West 441 507 38,000  Level Salt Lake Center
11:41AM 38.2367 -115.1494 264° West 442 509 38,000  Level Salt Lake Center
11:42AM 38.2258 -115.3058 265° West 444 511 38,000  Level Salt Lake Center
11:43AM 38.2108 -115.4822 264° West 446 513 38,000  Level Salt Lake Center
11:44AM 38.1983 -115.6383 264° West 445 512 38,000  Level Salt Lake Center
11:45AM 38.1856 -115.7964 264° West 448 516 38,000  Level Salt Lake Center
11:46AM 38.1728 -115.9519 264° West 445 512 38,000  Level Salt Lake Center
11:47AM 38.1592 -116.1069 264° West 444 511 38,000  Level Salt Lake Center
11:48AM 38.1450 -116.2619 263° West 441 507 38,000  Level Salt Lake Center
11:49AM 38.1347 -116.3847 264° West 442 509 38,000  Level Oakland Center
11:50AM 38.1189 -116.5711 264° West 441 507 38,000  Level Oakland Center
11:51AM 38.1039 -116.7269 263° West 444 511 38,000  Level Oakland Center
11:52AM 38.0894 -116.8836 263° West 444 511 38,000  Level Oakland Center
11:53AM 38.0744 -117.0428 263° West 449 517 38,000  Level Oakland Center
11:54AM 38.0581 -117.2058 263° West 450 518 38,000  Level Oakland Center
11:55AM 38.0422 -117.3706 263° West 457 526 38,000  Level Oakland Center
11:56AM 38.0278 -117.5289 263° West 452 520 38,000  Level Oakland Center
11:57AM 38.0108 -117.6883 262° West 453 521 38,000  Level Oakland Center
11:58AM 37.9958 -117.8461 263° West 452 520 38,000  Level Oakland Center
11:59AM 37.9781 -118.0044 262° West 453 521 38,000  Level Oakland Center
12:00PM 37.9628 -118.1608 263° West 448 516 38,000  Level Oakland Center
12:02PM 37.9458 -118.3156 262° West 446 513 38,000  Level Oakland Center
12:03PM 37.9283 -118.4703 262° West 444 511 38,000  Level Oakland Center
12:04PM 37.9106 -118.6250 262° West 445 512 38,000  Level Oakland Center
12:09PM 37.8180 -119.4360 262° West 100 115 38,000  Level FlightAware
12:11PM 37.7910 -119.6620 261° West 433 498 38,000  Level FlightAware
12:11PM 37.7840 -119.7220 262° West 433 498 38,000  Level FlightAware
12:12PM 37.7720 -119.8310 262° West 433 498 38,000  Level FlightAware
12:13PM 37.7630 -119.9100 262° West 433 498 38,000  Level FlightAware
12:13PM 37.7520 -120.0120 262° West 433 498 38,000  Level FlightAware
12:14PM 37.7440 -120.0870 262° West 433 498 38,000  Level FlightAware
12:15PM 37.7350 -120.1630 262° West 433 498 38,000 -4,320 Level FlightAware
12:15PM 37.7060 -120.3510 259° West 457 526 32,900 -3,600 Descending FlightAware
12:16PM 37.6920 -120.4630 261° West 457 526 32,900  Level FlightAware
12:17PM 37.6810 -120.5440 260° West 457 526 32,900  Level FlightAware
12:17PM 37.6680 -120.6510 261° West 457 526 32,900  Level FlightAware
12:18PM 37.6540 -120.7610 261° West 457 526 32,900  Level FlightAware
12:19PM 37.6440 -120.8440 261° West 457 526 32,900  Level FlightAware
12:19PM 37.6370 -120.8980 261° West 457 526 32,900  Level FlightAware
12:20PM 37.6240 -121.0060 261° West 457 526 32,900  Level FlightAware
12:20PM 37.6160 -121.0620 260° West 457 526 32,900  Level FlightAware
12:21PM 37.6030 -121.1710 261° West 457 526 32,900  Level FlightAware
12:22PM 37.5930 -121.2520 261° West 457 526 32,900  Level FlightAware
12:22PM 37.5860 -121.3060 261° West 457 526 32,900  Level FlightAware
12:23PM 37.5760 -121.3860 261° West 457 526 32,900  Level FlightAware
12:24PM 37.5620 -121.4940 261° West 457 526 32,900  Level FlightAware
12:24PM 37.5520 -121.5770 261° West 457 526 32,900  Level FlightAware
12:25PM 37.5380 -121.6840 261° West 457 526 32,900 -15,840 Level FlightAware
12:26PM 37.5500 -121.6500 261° West 287 330 11,000 -14,700 Descending Northern Cal TRACON
12:27PM 37.5167 -121.7333 243° Southwest 280 322 9,700 -1,200 Descending Northern Cal TRACON
12:28PM 37.5000 -121.8167 256° West 237 273 8,700 -1,200 Descending Northern Cal TRACON
12:29PM 37.4833 -121.8833 253° West 201 231 7,400 -1,320 Descending Northern Cal TRACON
12:29PM 37.4833 -121.9500 270° West 202 232 6,200 -780 Descending Northern Cal TRACON
12:30PM 37.4667 -122.0167 253° West 200 230 6,000 -600 Descending Northern Cal TRACON
12:31PM 37.5000 -122.0833 302° West 205 236 5,000 -1,080 Descending Northern Cal TRACON
12:32PM 37.5167 -122.1333 293° West 202 232 4,000 -1,080 Descending Northern Cal TRACON
12:33PM 37.5339 -122.1706 300° West 201 231 3,400 -1,020 Descending Oakland Center
12:34PM 37.5600 -122.2311 299° West 199 229 2,300 -1,020 Descending Oakland Center
12:35PM 37.5828 -122.2842 298° West 183 211 1,400 -840 Descending Oakland Center
12:36PM 37.5997 -122.3247 298° West 147 169 700 -600 Descending Oakland Center
12:37PM 37.6192 -122.3706 298° West 140 161 300 -420 Descending Oakland Center